Terminal Aerodrome Forecast
Issued by NWS Grand Forks, ND

Home | Current Version | Previous Version | Text Only | Print | Product List | Glossary On
Versions: 1 2 3 4 5 6 7 8 9 10 11 12 13 14 15 16 17 18 19 20 21 22 23 24 25 26
000
FTUS43 KFGF 172345 CCA
TAFFAR
TAF COR
KFAR 172345Z 1800/1824 17007KT P6SM SCT070
      TEMPO 1800/1803 1/2SM FG BKN004
     FM180400 18012KT 2SM BR BKN010
     FM180700 18012KT 5SM BR BKN015
     FM181400 20008KT P6SM OVC080
     FM182100 23010KT P6SM OVC040=

USA.gov is the U.S. government's official web portal to all federal, state and local government web resources and services.